LTAC/ESB METAR and TAF weather

Enter ICAO airport designator
Station Type Date Time Source
LTAC METAR 2020/01/23 05:50 UTC NOAA

LTAC 230550Z 22004KT 3200 BR FEW040 BKN100 M07/M08 Q1017 BECMG TL0620 9999 NSW


Station Type Date Time Source
LTAC Decoded METAR 2020/01/23 05:50 UTC NOAA

Ankara / Esenboga, Turkey (LTAC) 40-07N 032-59E 949M
Jan 23, 2020 - 12:50 AM EST / 2020.01.23 0550 UTC
Wind: from the SW (220 degrees) at 5 MPH (4 KT):0
Visibility: 1 mile(s):0
Sky conditions: mostly cloudy
Weather: mist
Temperature: 19 F (-7 C)
Windchill: 12 F (-11 C):1
Dew Point: 17 F (-8 C)
Relative Humidity: 92%
Pressure (altimeter): 30.03 in. Hg (1017 hPa)
ob: LTAC 230550Z 22004KT 3200 BR FEW040 BKN100 M07/M08 Q1017 BECMG TL0620 9999 NSW
cycle: 6

Station Type Date Time Source
LTAC TAF 2020/01/23 06:03 UTC NOAA

TAF TAF LTAC 230440Z 2306/2406 VRB02KT 9999 SCT040 BKN100
TEMPO 2309/2313 30015G25KT 4000 -SHSN SCT010 BKN030
TEMPO 2314/2318 -SHSN BKN030 BKN080

Example: see airport list